sensor_id;sensor_type;location;lat;lon;timestamp;P1;durP1;ratioP1;P2;durP2;ratioP2
5878;SDS011;2965;42.640;23.370;2022-11-28T05:02:34;3.27;;;3.07;;
5878;SDS011;2965;42.640;23.370;2022-11-28T05:05:05;3.40;;;3.20;;
5878;SDS011;2965;42.640;23.370;2022-11-28T05:07:52;2.83;;;2.70;;
5878;SDS011;2965;42.640;23.370;2022-11-28T05:10:18;4.57;;;4.30;;
5878;SDS011;2965;42.640;23.370;2022-11-28T05:12:44;3.60;;;3.40;;
5878;SDS011;2965;42.640;23.370;2022-11-28T05:15:10;3.37;;;3.20;;
5878;SDS011;2965;42.640;23.370;2022-11-28T05:17:35;3.90;;;3.70;;
5878;SDS011;2965;42.640;23.370;2022-11-28T05:20:02;3.83;;;3.53;;
5878;SDS011;2965;42.640;23.370;2022-11-28T05:22:28;3.80;;;2.87;;
5878;SDS011;2965;42.640;23.370;2022-11-28T05:24:54;3.23;;;3.13;;
5878;SDS011;2965;42.640;23.370;2022-11-28T05:27:19;3.47;;;3.30;;
5878;SDS011;2965;42.640;23.370;2022-11-28T05:29:44;4.33;;;3.93;;
5878;SDS011;2965;42.640;23.370;2022-11-28T05:32:11;6.03;;;3.73;;
5878;SDS011;2965;42.640;23.370;2022-11-28T05:34:39;4.73;;;4.30;;
5878;SDS011;2965;42.640;23.370;2022-11-28T05:37:04;3.73;;;3.53;;
5878;SDS011;2965;42.640;23.370;2022-11-28T05:39:30;4.70;;;4.30;;
5878;SDS011;2965;42.640;23.370;2022-11-28T05:41:56;3.90;;;3.70;;
5878;SDS011;2965;42.640;23.370;2022-11-28T05:44:22;3.80;;;3.70;;
5878;SDS011;2965;42.640;23.370;2022-11-28T05:46:48;4.30;;;3.93;;
5878;SDS011;2965;42.640;23.370;2022-11-28T05:49:14;4.30;;;4.10;;
5878;SDS011;2965;42.640;23.370;2022-11-28T05:51:39;4.67;;;4.27;;
5878;SDS011;2965;42.640;23.370;2022-11-28T05:54:05;4.13;;;3.87;;
5878;SDS011;2965;42.640;23.370;2022-11-28T05:56:30;5.10;;;4.70;;
5878;SDS011;2965;42.640;23.370;2022-11-28T05:58:56;4.23;;;4.03;;
5878;SDS011;2965;42.640;23.370;2022-11-28T06:01:23;4.20;;;3.90;;
5878;SDS011;2965;42.640;23.370;2022-11-28T06:03:50;5.33;;;4.93;;
5878;SDS011;2965;42.640;23.370;2022-11-28T06:06:22;4.77;;;4.40;;
5878;SDS011;2965;42.640;23.370;2022-11-28T06:08:48;5.03;;;4.73;;
5878;SDS011;2965;42.640;23.370;2022-11-28T06:11:15;5.70;;;5.30;;
5878;SDS011;2965;42.640;23.370;2022-11-28T06:13:41;6.30;;;5.80;;
5878;SDS011;2965;42.640;23.370;2022-11-28T06:16:08;5.70;;;5.30;;
5878;SDS011;2965;42.640;23.370;2022-11-28T06:18:36;6.53;;;5.97;;
5878;SDS011;2965;42.640;23.370;2022-11-28T06:21:02;6.60;;;6.00;;
5878;SDS011;2965;42.640;23.370;2022-11-28T06:23:29;7.80;;;6.37;;
5878;SDS011;2965;42.640;23.370;2022-11-28T06:25:54;7.37;;;5.93;;
5878;SDS011;2965;42.640;23.370;2022-11-28T06:28:20;6.23;;;5.60;;
5878;SDS011;2965;42.640;23.370;2022-11-28T06:30:45;5.77;;;5.33;;
5878;SDS011;2965;42.640;23.370;2022-11-28T06:33:11;7.53;;;6.53;;
5878;SDS011;2965;42.640;23.370;2022-11-28T06:35:36;7.93;;;6.37;;
5878;SDS011;2965;42.640;23.370;2022-11-28T06:38:01;8.17;;;7.27;;
5878;SDS011;2965;42.640;23.370;2022-11-28T06:40:27;7.13;;;6.53;;
5878;SDS011;2965;42.640;23.370;2022-11-28T06:42:52;6.30;;;5.83;;
5878;SDS011;2965;42.640;23.370;2022-11-28T06:45:17;9.70;;;8.20;;
5878;SDS011;2965;42.640;23.370;2022-11-28T06:47:43;12.50;;;7.40;;
5878;SDS011;2965;42.640;23.370;2022-11-28T06:50:08;8.23;;;6.90;;
5878;SDS011;2965;42.640;23.370;2022-11-28T06:52:34;9.07;;;7.07;;
5878;SDS011;2965;42.640;23.370;2022-11-28T06:55:00;9.37;;;7.50;;
5878;SDS011;2965;42.640;23.370;2022-11-28T06:57:25;8.67;;;7.00;;
5878;SDS011;2965;42.640;23.370;2022-11-28T06:59:51;7.63;;;6.87;;
5878;SDS011;2965;42.640;23.370;2022-11-28T07:02:16;9.67;;;8.33;;
5878;SDS011;2965;42.640;23.370;2022-11-28T07:04:41;11.57;;;6.87;;
5878;SDS011;2965;42.640;23.370;2022-11-28T07:07:07;9.47;;;8.07;;
5878;SDS011;2965;42.640;23.370;2022-11-28T07:09:32;8.80;;;7.03;;
5878;SDS011;2965;42.640;23.370;2022-11-28T07:11:57;10.20;;;7.33;;
5878;SDS011;2965;42.640;23.370;2022-11-28T07:14:23;10.80;;;8.00;;
5878;SDS011;2965;42.640;23.370;2022-11-28T07:16:48;11.47;;;9.40;;
5878;SDS011;2965;42.640;23.370;2022-11-28T07:19:13;14.07;;;9.13;;
5878;SDS011;2965;42.640;23.370;2022-11-28T07:21:39;12.00;;;8.87;;
5878;SDS011;2965;42.640;23.370;2022-11-28T07:24:05;8.80;;;6.73;;
5878;SDS011;2965;42.640;23.370;2022-11-28T07:26:31;10.83;;;8.50;;
5878;SDS011;2965;42.640;23.370;2022-11-28T07:28:56;9.87;;;7.87;;
5878;SDS011;2965;42.640;23.370;2022-11-28T07:31:24;11.23;;;8.57;;
5878;SDS011;2965;42.640;23.370;2022-11-28T07:33:56;11.77;;;8.00;;
5878;SDS011;2965;42.640;23.370;2022-11-28T07:36:22;9.90;;;7.47;;
5878;SDS011;2965;42.640;23.370;2022-11-28T07:38:50;11.20;;;7.30;;
5878;SDS011;2965;42.640;23.370;2022-11-28T07:41:18;10.70;;;7.30;;
5878;SDS011;2965;42.640;23.370;2022-11-28T07:43:47;10.90;;;7.63;;
5878;SDS011;2965;42.640;23.370;2022-11-28T07:46:14;8.27;;;6.17;;
5878;SDS011;2965;42.640;23.370;2022-11-28T07:48:41;9.93;;;7.37;;
5878;SDS011;2965;42.640;23.370;2022-11-28T07:51:08;9.87;;;6.97;;
5878;SDS011;2965;42.640;23.370;2022-11-28T07:53:36;7.70;;;7.00;;
5878;SDS011;2965;42.640;23.370;2022-11-28T07:56:03;12.23;;;7.43;;
5878;SDS011;2965;42.640;23.370;2022-11-28T07:58:29;10.40;;;8.33;;
5878;SDS011;2965;42.640;23.370;2022-11-28T08:00:55;8.80;;;7.20;;
5878;SDS011;2965;42.640;23.370;2022-11-28T08:03:20;7.80;;;6.73;;
5878;SDS011;2965;42.640;23.370;2022-11-28T08:05:47;6.40;;;5.80;;
5878;SDS011;2965;42.640;23.370;2022-11-28T08:08:14;7.10;;;5.73;;
5878;SDS011;2965;42.640;23.370;2022-11-28T08:10:41;8.40;;;5.93;;
5878;SDS011;2965;42.640;23.370;2022-11-28T08:13:06;7.63;;;6.50;;
5878;SDS011;2965;42.640;23.370;2022-11-28T08:15:32;7.27;;;6.43;;
5878;SDS011;2965;42.640;23.370;2022-11-28T08:17:57;7.80;;;6.50;;
5878;SDS011;2965;42.640;23.370;2022-11-28T08:20:23;8.30;;;6.67;;
5878;SDS011;2965;42.640;23.370;2022-11-28T08:22:48;8.83;;;6.60;;
5878;SDS011;2965;42.640;23.370;2022-11-28T08:25:13;6.40;;;5.63;;
5878;SDS011;2965;42.640;23.370;2022-11-28T08:27:39;6.90;;;6.27;;
5878;SDS011;2965;42.640;23.370;2022-11-28T08:30:04;5.93;;;5.40;;
5878;SDS011;2965;42.640;23.370;2022-11-28T08:32:31;6.03;;;5.40;;
5878;SDS011;2965;42.640;23.370;2022-11-28T08:34:56;6.60;;;5.53;;
5878;SDS011;2965;42.640;23.370;2022-11-28T08:37:21;5.70;;;5.10;;
5878;SDS011;2965;42.640;23.370;2022-11-28T08:39:47;6.43;;;5.37;;
5878;SDS011;2965;42.640;23.370;2022-11-28T08:42:12;5.93;;;5.03;;
5878;SDS011;2965;42.640;23.370;2022-11-28T08:44:37;6.63;;;6.03;;
5878;SDS011;2965;42.640;23.370;2022-11-28T08:47:03;6.10;;;5.60;;
5878;SDS011;2965;42.640;23.370;2022-11-28T08:49:28;6.40;;;5.57;;
5878;SDS011;2965;42.640;23.370;2022-11-28T08:51:54;6.07;;;5.60;;
5878;SDS011;2965;42.640;23.370;2022-11-28T08:54:19;6.63;;;5.00;;
5878;SDS011;2965;42.640;23.370;2022-11-28T08:56:46;5.47;;;5.10;;
5878;SDS011;2965;42.640;23.370;2022-11-28T08:59:11;8.70;;;6.93;;
5878;SDS011;2965;42.640;23.370;2022-11-28T09:01:37;6.20;;;5.50;;
5878;SDS011;2965;42.640;23.370;2022-11-28T09:04:03;5.07;;;4.67;;
5878;SDS011;2965;42.640;23.370;2022-11-28T09:06:29;5.20;;;4.70;;
5878;SDS011;2965;42.640;23.370;2022-11-28T09:08:54;5.67;;;5.20;;
5878;SDS011;2965;42.640;23.370;2022-11-28T09:11:20;5.07;;;4.50;;
5878;SDS011;2965;42.640;23.370;2022-11-28T09:13:46;6.57;;;5.30;;
5878;SDS011;2965;42.640;23.370;2022-11-28T09:16:12;8.43;;;5.67;;
5878;SDS011;2965;42.640;23.370;2022-11-28T09:18:38;6.17;;;5.63;;
5878;SDS011;2965;42.640;23.370;2022-11-28T09:21:04;6.10;;;5.60;;
5878;SDS011;2965;42.640;23.370;2022-11-28T09:23:34;6.03;;;5.43;;
5878;SDS011;2965;42.640;23.370;2022-11-28T09:26:00;8.27;;;5.67;;
5878;SDS011;2965;42.640;23.370;2022-11-28T09:28:25;4.80;;;4.50;;
5878;SDS011;2965;42.640;23.370;2022-11-28T09:31:02;4.00;;;3.80;;
5878;SDS011;2965;42.640;23.370;2022-11-28T09:33:29;5.33;;;3.03;;
5878;SDS011;2965;42.640;23.370;2022-11-28T09:35:54;5.03;;;4.60;;
5878;SDS011;2965;42.640;23.370;2022-11-28T09:38:23;4.50;;;4.20;;
5878;SDS011;2965;42.640;23.370;2022-11-28T09:40:50;3.70;;;3.50;;
5878;SDS011;2965;42.640;23.370;2022-11-28T09:45:44;4.00;;;3.70;;
5878;SDS011;2965;42.640;23.370;2022-11-28T09:50:46;3.37;;;3.27;;
5878;SDS011;2965;42.640;23.370;2022-11-28T09:53:23;3.40;;;3.20;;
5878;SDS011;2965;42.640;23.370;2022-11-28T09:55:58;3.00;;;2.80;;
5878;SDS011;2965;42.640;23.370;2022-11-28T09:58:37;3.77;;;3.60;;
5878;SDS011;2965;42.640;23.370;2022-11-28T10:01:44;3.90;;;3.60;;
5878;SDS011;2965;42.640;23.370;2022-11-28T10:04:23;4.10;;;3.80;;
5878;SDS011;2965;42.640;23.370;2022-11-28T10:07:04;4.27;;;4.07;;
5878;SDS011;2965;42.640;23.370;2022-11-28T10:18:46;3.00;;;2.90;;
5878;SDS011;2965;42.640;23.370;2022-11-28T10:23:52;3.33;;;3.13;;
5878;SDS011;2965;42.640;23.370;2022-11-28T10:26:28;3.03;;;2.83;;
5878;SDS011;2965;42.640;23.370;2022-11-28T10:29:00;2.97;;;2.87;;
5878;SDS011;2965;42.640;23.370;2022-11-28T10:31:43;2.67;;;2.57;;
5878;SDS011;2965;42.640;23.370;2022-11-28T10:34:13;3.17;;;3.07;;
5878;SDS011;2965;42.640;23.370;2022-11-28T10:39:49;3.27;;;3.07;;
5878;SDS011;2965;42.640;23.370;2022-11-28T10:45:10;2.77;;;2.63;;
5878;SDS011;2965;42.640;23.370;2022-11-28T10:58:56;4.90;;;4.40;;
5878;SDS011;2965;42.640;23.370;2022-11-28T11:01:30;4.93;;;4.50;;
5878;SDS011;2965;42.640;23.370;2022-11-28T11:04:01;4.83;;;3.50;;
5878;SDS011;2965;42.640;23.370;2022-11-28T11:06:27;3.87;;;3.57;;
5878;SDS011;2965;42.640;23.370;2022-11-28T11:08:53;3.80;;;3.60;;
5878;SDS011;2965;42.640;23.370;2022-11-28T11:11:23;8.60;;;3.80;;
5878;SDS011;2965;42.640;23.370;2022-11-28T11:13:58;6.60;;;4.47;;
5878;SDS011;2965;42.640;23.370;2022-11-28T11:16:51;5.30;;;4.90;;
5878;SDS011;2965;42.640;23.370;2022-11-28T11:24:23;4.03;;;3.83;;
5878;SDS011;2965;42.640;23.370;2022-11-28T11:26:48;4.87;;;4.53;;
5878;SDS011;2965;42.640;23.370;2022-11-28T11:31:54;3.37;;;3.17;;
5878;SDS011;2965;42.640;23.370;2022-11-28T11:34:27;4.07;;;3.70;;
5878;SDS011;2965;42.640;23.370;2022-11-28T11:37:16;4.53;;;3.50;;
5878;SDS011;2965;42.640;23.370;2022-11-28T11:39:49;3.83;;;3.63;;
5878;SDS011;2965;42.640;23.370;2022-11-28T11:42:22;4.43;;;4.17;;
5878;SDS011;2965;42.640;23.370;2022-11-28T11:44:51;4.70;;;4.30;;
5878;SDS011;2965;42.640;23.370;2022-11-28T11:47:17;4.63;;;4.37;;
5878;SDS011;2965;42.640;23.370;2022-11-28T11:49:46;5.83;;;4.50;;
5878;SDS011;2965;42.640;23.370;2022-11-28T11:54:39;4.73;;;4.43;;
5878;SDS011;2965;42.640;23.370;2022-11-28T11:57:38;5.43;;;5.00;;
5878;SDS011;2965;42.640;23.370;2022-11-28T12:02:40;5.10;;;4.90;;
5878;SDS011;2965;42.640;23.370;2022-11-28T12:10:32;4.97;;;4.60;;
5878;SDS011;2965;42.640;23.370;2022-11-28T12:13:01;4.57;;;4.33;;
5878;SDS011;2965;42.640;23.370;2022-11-28T12:20:46;6.17;;;5.57;;
5878;SDS011;2965;42.640;23.370;2022-11-28T12:26:57;3.83;;;3.63;;
5878;SDS011;2965;42.640;23.370;2022-11-28T12:29:14;4.00;;;3.90;;
5878;SDS011;2965;42.640;23.370;2022-11-28T12:45:11;4.83;;;4.53;;
5878;SDS011;2965;42.640;23.370;2022-11-28T12:47:45;4.73;;;4.30;;
5878;SDS011;2965;42.640;23.370;2022-11-28T12:58:57;5.67;;;5.10;;
5878;SDS011;2965;42.640;23.370;2022-11-28T13:04:33;5.73;;;5.17;;
5878;SDS011;2965;42.640;23.370;2022-11-28T13:12:28;4.07;;;3.87;;
5878;SDS011;2965;42.640;23.370;2022-11-28T13:15:15;3.67;;;3.47;;
5878;SDS011;2965;42.640;23.370;2022-11-28T13:17:55;5.17;;;4.77;;
5878;SDS011;2965;42.640;23.370;2022-11-28T13:20:48;13.17;;;4.90;;
5878;SDS011;2965;42.640;23.370;2022-11-28T13:23:18;5.30;;;5.00;;
5878;SDS011;2965;42.640;23.370;2022-11-28T13:28:26;4.97;;;4.37;;
5878;SDS011;2965;42.640;23.370;2022-11-28T13:31:06;5.27;;;4.87;;
5878;SDS011;2965;42.640;23.370;2022-11-28T13:36:13;9.80;;;5.80;;
5878;SDS011;2965;42.640;23.370;2022-11-28T13:39:06;6.27;;;5.77;;
5878;SDS011;2965;42.640;23.370;2022-11-28T13:46:41;6.07;;;5.60;;
5878;SDS011;2965;42.640;23.370;2022-11-28T13:49:09;6.43;;;5.83;;
5878;SDS011;2965;42.640;23.370;2022-11-28T13:51:43;7.13;;;6.43;;
5878;SDS011;2965;42.640;23.370;2022-11-28T13:56:44;7.30;;;6.20;;
5878;SDS011;2965;42.640;23.370;2022-11-28T13:59:15;5.43;;;5.13;;
5878;SDS011;2965;42.640;23.370;2022-11-28T14:01:45;6.10;;;5.70;;
5878;SDS011;2965;42.640;23.370;2022-11-28T14:04:15;9.07;;;6.07;;
5878;SDS011;2965;42.640;23.370;2022-11-28T14:06:49;6.30;;;5.80;;
5878;SDS011;2965;42.640;23.370;2022-11-28T14:17:45;5.77;;;5.27;;
5878;SDS011;2965;42.640;23.370;2022-11-28T14:20:17;5.60;;;5.10;;
5878;SDS011;2965;42.640;23.370;2022-11-28T14:25:47;8.50;;;5.10;;
5878;SDS011;2965;42.640;23.370;2022-11-28T14:30:51;5.93;;;5.43;;
5878;SDS011;2965;42.640;23.370;2022-11-28T14:43:41;5.97;;;5.47;;
5878;SDS011;2965;42.640;23.370;2022-11-28T14:46:31;6.53;;;5.27;;
5878;SDS011;2965;42.640;23.370;2022-11-28T14:56:52;5.03;;;4.73;;
5878;SDS011;2965;42.640;23.370;2022-11-28T14:59:18;7.50;;;4.60;;
5878;SDS011;2965;42.640;23.370;2022-11-28T15:01:54;5.50;;;5.00;;
5878;SDS011;2965;42.640;23.370;2022-11-28T15:07:37;5.30;;;4.90;;
5878;SDS011;2965;42.640;23.370;2022-11-28T15:15:48;5.90;;;5.43;;
5878;SDS011;2965;42.640;23.370;2022-11-28T15:18:15;9.07;;;5.97;;
5878;SDS011;2965;42.640;23.370;2022-11-28T15:21:01;7.87;;;6.90;;
5878;SDS011;2965;42.640;23.370;2022-11-28T15:23:35;6.97;;;6.33;;
5878;SDS011;2965;42.640;23.370;2022-11-28T15:26:02;7.30;;;6.63;;
5878;SDS011;2965;42.640;23.370;2022-11-28T15:28:28;8.10;;;6.50;;
5878;SDS011;2965;42.640;23.370;2022-11-28T15:30:57;4.93;;;4.70;;
5878;SDS011;2965;42.640;23.370;2022-11-28T15:33:25;5.63;;;5.27;;
5878;SDS011;2965;42.640;23.370;2022-11-28T15:36:00;8.10;;;6.23;;
5878;SDS011;2965;42.640;23.370;2022-11-28T15:38:36;5.03;;;4.27;;
5878;SDS011;2965;42.640;23.370;2022-11-28T15:41:03;4.20;;;3.90;;
5878;SDS011;2965;42.640;23.370;2022-11-28T15:43:28;5.33;;;4.90;;
5878;SDS011;2965;42.640;23.370;2022-11-28T15:45:56;4.70;;;4.30;;
5878;SDS011;2965;42.640;23.370;2022-11-28T15:48:36;4.83;;;4.43;;
5878;SDS011;2965;42.640;23.370;2022-11-28T17:57:07;6.13;;;5.63;;
5878;SDS011;2965;42.640;23.370;2022-11-28T17:59:33;5.20;;;4.73;;
5878;SDS011;2965;42.640;23.370;2022-11-28T18:01:59;4.50;;;4.30;;
5878;SDS011;2965;42.640;23.370;2022-11-28T18:04:25;4.60;;;4.30;;
5878;SDS011;2965;42.640;23.370;2022-11-28T18:06:50;5.30;;;4.90;;
5878;SDS011;2965;42.640;23.370;2022-11-28T18:09:16;6.10;;;4.80;;
5878;SDS011;2965;42.640;23.370;2022-11-28T18:11:42;6.93;;;6.33;;
5878;SDS011;2965;42.640;23.370;2022-11-28T18:14:10;6.70;;;5.77;;
5878;SDS011;2965;42.640;23.370;2022-11-28T18:16:35;5.90;;;5.30;;
5878;SDS011;2965;42.640;23.370;2022-11-28T18:19:01;7.17;;;6.43;;
5878;SDS011;2965;42.640;23.370;2022-11-28T18:21:27;7.30;;;6.33;;
5878;SDS011;2965;42.640;23.370;2022-11-28T18:23:53;12.40;;;8.10;;
5878;SDS011;2965;42.640;23.370;2022-11-28T18:26:22;9.10;;;8.10;;
5878;SDS011;2965;42.640;23.370;2022-11-28T18:28:49;8.70;;;7.60;;
5878;SDS011;2965;42.640;23.370;2022-11-28T18:31:18;10.33;;;7.70;;
5878;SDS011;2965;42.640;23.370;2022-11-28T18:33:44;9.90;;;8.50;;
5878;SDS011;2965;42.640;23.370;2022-11-28T18:38:36;9.83;;;8.57;;
5878;SDS011;2965;42.640;23.370;2022-11-28T18:41:03;15.90;;;11.47;;
5878;SDS011;2965;42.640;23.370;2022-11-28T18:43:30;14.73;;;9.40;;
5878;SDS011;2965;42.640;23.370;2022-11-28T18:46:00;16.73;;;10.13;;
5878;SDS011;2965;42.640;23.370;2022-11-28T18:48:27;13.17;;;9.90;;
5878;SDS011;2965;42.640;23.370;2022-11-28T18:50:52;13.63;;;9.47;;
5878;SDS011;2965;42.640;23.370;2022-11-28T18:53:17;10.10;;;8.10;;
5878;SDS011;2965;42.640;23.370;2022-11-28T18:55:43;14.37;;;8.60;;
5878;SDS011;2965;42.640;23.370;2022-11-28T18:58:08;8.60;;;7.70;;
5878;SDS011;2965;42.640;23.370;2022-11-28T19:00:33;8.10;;;7.30;;
5878;SDS011;2965;42.640;23.370;2022-11-28T19:02:59;9.50;;;7.53;;
5878;SDS011;2965;42.640;23.370;2022-11-28T19:05:24;9.13;;;8.30;;
5878;SDS011;2965;42.640;23.370;2022-11-28T19:07:49;9.57;;;8.13;;
5878;SDS011;2965;42.640;23.370;2022-11-28T19:10:15;7.83;;;7.13;;
5878;SDS011;2965;42.640;23.370;2022-11-28T19:12:40;9.07;;;8.27;;
5878;SDS011;2965;42.640;23.370;2022-11-28T19:15:06;14.40;;;7.90;;
5878;SDS011;2965;42.640;23.370;2022-11-28T19:17:32;8.67;;;7.73;;
5878;SDS011;2965;42.640;23.370;2022-11-28T19:19:58;10.20;;;7.27;;
5878;SDS011;2965;42.640;23.370;2022-11-28T19:22:23;8.03;;;7.33;;
5878;SDS011;2965;42.640;23.370;2022-11-28T19:24:49;6.77;;;6.13;;
5878;SDS011;2965;42.640;23.370;2022-11-28T19:27:14;7.00;;;6.40;;
5878;SDS011;2965;42.640;23.370;2022-11-28T19:29:39;6.60;;;6.00;;
5878;SDS011;2965;42.640;23.370;2022-11-28T19:32:05;7.03;;;6.37;;
5878;SDS011;2965;42.640;23.370;2022-11-28T19:34:30;8.50;;;5.40;;
5878;SDS011;2965;42.640;23.370;2022-11-28T19:36:56;6.80;;;6.07;;
5878;SDS011;2965;42.640;23.370;2022-11-28T19:39:22;7.53;;;6.80;;
5878;SDS011;2965;42.640;23.370;2022-11-28T19:41:50;9.60;;;7.70;;
5878;SDS011;2965;42.640;23.370;2022-11-28T19:44:17;11.70;;;7.30;;
5878;SDS011;2965;42.640;23.370;2022-11-28T19:46:44;8.00;;;7.20;;
5878;SDS011;2965;42.640;23.370;2022-11-28T19:49:14;8.23;;;6.03;;
5878;SDS011;2965;42.640;23.370;2022-11-28T19:51:41;5.77;;;5.33;;
5878;SDS011;2965;42.640;23.370;2022-11-28T19:54:07;5.60;;;5.10;;
